Betty Knutsen — LAMC5 — position and weather

sailwx.info

Track history (hours):
 
Tides and Currents Weather Stations Pressure Air Temp Water Temp Dewpoint Dewpoint Depression Visibility Wind Speed Wind Dir Waves Ship Positions

Betty Knutsen

Last reported at 2017-Oct-19 15:31 UTC. Time now 2017-Nov-21 04:19 UTC.
Position N 04°42' W 002°40'.
Warning: this ship's position is 32 days out of date.

Length 187 m; draft 8.8 m.

Type: Tanker. MMSI: 257392000.

Date/timePositionNaut miles runAvg speedWind from/ knotsBaromVisibWave heightAir tempDewpointWater temp
2017-Oct-19 15:31N 04°42' W 002°40'0 0.1
2017-Oct-19 15:25N 04°42' W 002°40'0 0.0
2017-Oct-19 14:58N 04°42' W 002°40'0 0.0
2017-Oct-19 14:28N 04°42' W 002°40'0 0.0
2017-Oct-19 13:58N 04°42' W 002°40'0 0.0
2017-Oct-19 13:28N 04°42' W 002°40'0 0.0
2017-Oct-19 12:58N 04°42' W 002°40'0 0.0
2017-Oct-19 12:22N 04°42' W 002°40'0 0.0
2017-Oct-19 11:55N 04°42' W 002°40'  
2017-Oct-16 05:43N 04°17' W 002°59'0 1.6
2017-Oct-16 05:28N 04°17' W 002°59'1 1.5
2017-Oct-16 04:58N 04°16' W 002°59'1 1.6
2017-Oct-16 04:28N 04°15' W 002°59'1 1.6
2017-Oct-16 03:58N 04°15' W 002°59'1 1.6
2017-Oct-16 03:28N 04°14' W 002°59'1 1.6
2017-Oct-16 02:58N 04°13' W 002°59'1 1.5
2017-Oct-16 02:28N 04°12' W 002°59'1 2.0
2017-Oct-16 01:55N 04°11' W 002°59'1 2.6
2017-Oct-16 01:28N 04°10' W 002°59'1 3.2
2017-Oct-16 00:59N 04°08' W 002°58'2 3.0
2017-Oct-16 00:26N 04°07' W 002°58'1 2.6
2017-Oct-15 23:59N 04°06' W 002°58'1 2.3
2017-Oct-15 23:29N 04°04' W 002°58'1 1.7
2017-Oct-15 22:56N 04°04' W 002°58'1 2.0
2017-Oct-15 22:29N 04°03' W 002°58'1 2.3
2017-Oct-15 21:56N 04°01' W 002°59'1 2.0
2017-Oct-15 21:29N 04°00' W 002°59'1 1.9
2017-Oct-15 20:59N 03°60' W 002°59'1 2.0
2017-Oct-15 20:29N 03°59' W 002°59'1 1.9
2017-Oct-15 19:59N 03°58' W 002°59'1 2.1
2017-Oct-15 19:29N 03°57' W 002°59'21 0.6
2017-Oct-14 07:56N 04°10' W 002°42'1 1.2
2017-Oct-14 07:28N 04°10' W 002°42'1 1.2
2017-Oct-14 07:00N 04°11' W 002°42'1 1.3
2017-Oct-14 06:28N 04°12' W 002°43'1 1.3
2017-Oct-14 06:00N 04°12' W 002°43'1 1.3
2017-Oct-14 05:30N 04°13' W 002°43'1 1.3
2017-Oct-14 04:59N 04°13' W 002°43'1 1.4
2017-Oct-14 04:30N 04°14' W 002°43'1 1.3
2017-Oct-14 04:00N 04°15' W 002°43'1 1.5
2017-Oct-14 03:31N 04°15' W 002°43'1 1.5
2017-Oct-14 02:59N 04°16' W 002°44'1 1.5
2017-Oct-14 02:30N 04°17' W 002°44'1 1.5
2017-Oct-14 02:00N 04°17' W 002°44'1 1.5
2017-Oct-14 01:30N 04°18' W 002°45'1 1.4
2017-Oct-14 01:00N 04°19' W 002°45'1 1.4
2017-Oct-14 00:29N 04°19' W 002°45'1 1.3
2017-Oct-13 23:59N 04°20' W 002°45'1 1.3
2017-Oct-13 23:30N 04°21' W 002°45'1 1.3
2017-Oct-13 23:00N 04°21' W 002°45'1 1.2
2017-Oct-13 22:29N 04°22' W 002°45'1 1.2
2017-Oct-13 21:59N 04°22' W 002°45'1 1.3
2017-Oct-13 21:30N 04°23' W 002°45'1 1.2
2017-Oct-13 21:00N 04°24' W 002°45'1 1.2
2017-Oct-13 20:30N 04°24' W 002°45'1 1.2
2017-Oct-13 20:00N 04°25' W 002°46'1 1.2
2017-Oct-13 19:29N 04°25' W 002°46'1 1.2
2017-Oct-13 18:59N 04°26' W 002°46'1 1.2
2017-Oct-13 18:29N 04°27' W 002°46'1 1.2
2017-Oct-13 18:00N 04°27' W 002°46'1 1.2
2017-Oct-13 17:30N 04°28' W 002°46'1 1.3
2017-Oct-13 16:59N 04°29' W 002°46'1 1.3
2017-Oct-13 16:30N 04°29' W 002°46'1 1.3
2017-Oct-13 15:59N 04°30' W 002°46'1 1.4
2017-Oct-13 15:29N 04°30' W 002°47'1 1.3
2017-Oct-13 15:00N 04°31' W 002°47'1 1.2
2017-Oct-13 14:30N 04°32' W 002°47'1 1.0
2017-Oct-13 14:00N 04°32' W 002°47'1 1.1
2017-Oct-13 13:29N 04°33' W 002°47'1 1.3
2017-Oct-13 12:59N 04°33' W 002°48'1 1.2
2017-Oct-13 12:30N 04°34' W 002°48'0 1.0
2017-Oct-13 12:00N 04°34' W 002°48'1 1.7
2017-Oct-13 11:29N 04°35' W 002°49'3 6.0
2017-Oct-13 11:00N 04°36' W 002°51'2 3.8
2017-Oct-13 10:30N 04°36' W 002°53'0 0.2
2017-Oct-13 10:00N 04°36' W 002°53'0 0.1
2017-Oct-13 07:51N 04°36' W 002°53'0 0.0
2017-Oct-13 07:30N 04°36' W 002°53'0 0.0
2017-Oct-13 07:00N 04°36' W 002°53'0 0.0
2017-Oct-13 06:30N 04°36' W 002°53'0 0.0
2017-Oct-13 06:00N 04°36' W 002°53'0 0.0
2017-Oct-13 05:30N 04°36' W 002°53'0 0.0
2017-Oct-13 04:57N 04°36' W 002°53'0 0.0
2017-Oct-13 04:30N 04°36' W 002°53'0 0.0
2017-Oct-13 04:00N 04°36' W 002°53'0 0.0
2017-Oct-13 03:30N 04°36' W 002°53'0 0.0
2017-Oct-13 03:00N 04°36' W 002°53'0 0.0
2017-Oct-13 02:30N 04°36' W 002°53'0 0.0
2017-Oct-13 02:00N 04°36' W 002°53'0 0.0
2017-Oct-13 01:30N 04°36' W 002°53'0 0.0
2017-Oct-13 01:00N 04°36' W 002°53'0 0.0
2017-Oct-13 00:30N 04°36' W 002°53'0 0.0
2017-Oct-13 00:00N 04°36' W 002°53'0 0.0
2017-Oct-12 23:30N 04°36' W 002°53'0 0.0
2017-Oct-12 22:54N 04°36' W 002°53'0 0.0
2017-Oct-12 22:24N 04°36' W 002°53'0 0.0
2017-Oct-12 21:57N 04°36' W 002°53'0 0.0
2017-Oct-12 21:30N 04°36' W 002°53'0 0.0
2017-Oct-12 21:00N 04°36' W 002°53'0 0.0
2017-Oct-12 20:30N 04°36' W 002°53'0 0.0
2017-Oct-12 20:00N 04°36' W 002°53'0 0.0
2017-Oct-12 19:30N 04°36' W 002°53'0 0.0
2017-Oct-12 18:54N 04°36' W 002°53'0 0.0
2017-Oct-12 18:30N 04°36' W 002°53'0 0.0
2017-Oct-12 18:00N 04°36' W 002°53'0 0.0
2017-Oct-12 17:30N 04°36' W 002°53'0 0.0
2017-Oct-12 17:00N 04°36' W 002°53'0 0.0
2017-Oct-12 16:30N 04°36' W 002°53'0 0.0
2017-Oct-12 16:00N 04°36' W 002°53'0 0.0
2017-Oct-12 15:30N 04°36' W 002°53'0 0.0
2017-Oct-12 15:00N 04°36' W 002°53'0 0.0
2017-Oct-12 14:30N 04°36' W 002°53'0 0.0
2017-Oct-12 14:00N 04°36' W 002°53'0 0.1
2017-Oct-12 13:27N 04°36' W 002°53'0 0.0
2017-Oct-12 12:59N 04°36' W 002°53'0 0.0
2017-Oct-12 12:29N 04°36' W 002°53'0 0.0
2017-Oct-12 11:55N 04°36' W 002°53'0 0.0
2017-Oct-12 11:29N 04°36' W 002°53'0 0.2
2017-Oct-12 11:00N 04°36' W 002°53'0 0.5
2017-Oct-12 10:29N 04°36' W 002°53'0 0.2
2017-Oct-12 09:59N 04°36' W 002°53'0 0.1
2017-Oct-12 09:30N 04°36' W 002°53'1 2.5
2017-Oct-12 09:00N 04°38' W 002°53'3 3.4
2017-Oct-12 08:06N 04°40' W 002°51'1 3.8
2017-Oct-12 07:54N 04°39' W 002°50'2 1.1
2017-Oct-12 05:43N 04°42' W 002°50'0 0.9
2017-Oct-12 05:18N 04°42' W 002°50'0 0.9
2017-Oct-12 04:58N 04°43' W 002°50'2 0.9
2017-Oct-12 02:30N 04°45' W 002°50'0 0.5
2017-Oct-12 01:59N 04°45' W 002°50'2 4.6
2017-Oct-12 01:29N 04°42' W 002°49'2 4.6
2017-Oct-12 00:59N 04°40' W 002°49'2 4.6
2017-Oct-12 00:30N 04°38' W 002°49'2 4.7
2017-Oct-12 00:00N 04°36' W 002°49'2 4.8
2017-Oct-11 23:29N 04°33' W 002°49'2 4.7
2017-Oct-11 22:59N 04°31' W 002°49'2 4.4
2017-Oct-11 22:29N 04°29' W 002°49'1 1.6
2017-Oct-11 22:01N 04°28' W 002°49'1 1.0
2017-Oct-11 21:30N 04°28' W 002°49'1 1.0
2017-Oct-11 21:00N 04°29' W 002°49'1 1.0
2017-Oct-11 20:30N 04°29' W 002°50'1 1.2
2017-Oct-11 19:59N 04°30' W 002°50'1 1.1
2017-Oct-11 19:29N 04°30' W 002°50'1 1.1
2017-Oct-11 19:00N 04°31' W 002°50'1 1.1
2017-Oct-11 18:30N 04°32' W 002°50'1 1.0
2017-Oct-11 17:59N 04°32' W 002°50'1 1.3
2017-Oct-11 17:29N 04°33' W 002°50'1 1.5
2017-Oct-11 16:59N 04°33' W 002°50'35 2.1
2017-Oct-10 23:59N 04°29' W 002°15'3 5.0
2017-Oct-10 23:29N 04°30' W 002°13'2 5.1
2017-Oct-10 23:00N 04°31' W 002°10'3 5.2
2017-Oct-10 22:30N 04°33' W 002°08'3 5.3
2017-Oct-10 21:59N 04°34' W 002°06'2 5.2
2017-Oct-10 21:30N 04°35' W 002°04'4 5.1
2017-Oct-10 20:49N 04°36' W 002°00'4 4.9
2017-Oct-10 20:01N 04°38' W 001°57'2 3.3
2017-Oct-10 19:28N 04°39' W 001°55'2 3.4
2017-Oct-10 18:50N 04°40' W 001°54'1 3.8
2017-Oct-10 18:27N 04°42' W 001°53'2 3.9
2017-Oct-10 18:00N 04°43' W 001°51'2 3.5
2017-Oct-10 17:29N 04°44' W 001°50'3 3.3
2017-Oct-10 16:29N 04°47' W 001°48'8 0.5
2017-Oct-09 22:29N 04°53' W 001°42'0 0.0
2017-Oct-09 21:14N 04°53' W 001°42'0 0.0
2017-Oct-09 20:56N 04°53' W 001°42'0 0.0
2017-Oct-09 20:29N 04°53' W 001°42'0 0.0
2017-Oct-09 19:59N 04°53' W 001°42'0 0.0
2017-Oct-09 19:29N 04°53' W 001°42'0 0.0
2017-Oct-09 18:53N 04°53' W 001°42'0 0.0
2017-Oct-09 18:26N 04°53' W 001°42'0 0.0
2017-Oct-09 17:59N 04°53' W 001°42'0 0.0
2017-Oct-09 17:23N 04°53' W 001°42'0 0.0
2017-Oct-09 16:14N 04°53' W 001°42'0 0.0
2017-Oct-09 15:59N 04°53' W 001°42'  
Track history (hours):
 
Tides and Currents Weather Stations Pressure Air Temp Water Temp Dewpoint Dewpoint Depression Visibility Wind Speed Wind Dir Waves Ship Positions

Betty Knutsen

Last reported at 2017-Oct-19 15:31 UTC. Time now 2017-Nov-21 04:19 UTC.
Position N 04°42' W 002°40'.
Warning: this ship's position is 32 days out of date.

Length 187 m; draft 8.8 m.

Type: Tanker. MMSI: 257392000.

Date/timePositionNaut miles runAvg speedWind from/ knotsBaromVisibWave heightAir tempDewpointWater temp
2017-Oct-19 15:31N 04°42' W 002°40'0 0.1
2017-Oct-19 15:25N 04°42' W 002°40'0 0.0
2017-Oct-19 14:58N 04°42' W 002°40'0 0.0
2017-Oct-19 14:28N 04°42' W 002°40'0 0.0
2017-Oct-19 13:58N 04°42' W 002°40'0 0.0
2017-Oct-19 13:28N 04°42' W 002°40'0 0.0
2017-Oct-19 12:58N 04°42' W 002°40'0 0.0
2017-Oct-19 12:22N 04°42' W 002°40'0 0.0
2017-Oct-19 11:55N 04°42' W 002°40'  
2017-Oct-16 05:43N 04°17' W 002°59'0 1.6
2017-Oct-16 05:28N 04°17' W 002°59'1 1.5
2017-Oct-16 04:58N 04°16' W 002°59'1 1.6
2017-Oct-16 04:28N 04°15' W 002°59'1 1.6
2017-Oct-16 03:58N 04°15' W 002°59'1 1.6
2017-Oct-16 03:28N 04°14' W 002°59'1 1.6
2017-Oct-16 02:58N 04°13' W 002°59'1 1.5
2017-Oct-16 02:28N 04°12' W 002°59'1 2.0
2017-Oct-16 01:55N 04°11' W 002°59'1 2.6
2017-Oct-16 01:28N 04°10' W 002°59'1 3.2
2017-Oct-16 00:59N 04°08' W 002°58'2 3.0
2017-Oct-16 00:26N 04°07' W 002°58'1 2.6
2017-Oct-15 23:59N 04°06' W 002°58'1 2.3
2017-Oct-15 23:29N 04°04' W 002°58'1 1.7
2017-Oct-15 22:56N 04°04' W 002°58'1 2.0
2017-Oct-15 22:29N 04°03' W 002°58'1 2.3
2017-Oct-15 21:56N 04°01' W 002°59'1 2.0
2017-Oct-15 21:29N 04°00' W 002°59'1 1.9
2017-Oct-15 20:59N 03°60' W 002°59'1 2.0
2017-Oct-15 20:29N 03°59' W 002°59'1 1.9
2017-Oct-15 19:59N 03°58' W 002°59'1 2.1
2017-Oct-15 19:29N 03°57' W 002°59'21 0.6
2017-Oct-14 07:56N 04°10' W 002°42'1 1.2
2017-Oct-14 07:28N 04°10' W 002°42'1 1.2
2017-Oct-14 07:00N 04°11' W 002°42'1 1.3
2017-Oct-14 06:28N 04°12' W 002°43'1 1.3
2017-Oct-14 06:00N 04°12' W 002°43'1 1.3
2017-Oct-14 05:30N 04°13' W 002°43'1 1.3
2017-Oct-14 04:59N 04°13' W 002°43'1 1.4
2017-Oct-14 04:30N 04°14' W 002°43'1 1.3
2017-Oct-14 04:00N 04°15' W 002°43'1 1.5
2017-Oct-14 03:31N 04°15' W 002°43'1 1.5
2017-Oct-14 02:59N 04°16' W 002°44'1 1.5
2017-Oct-14 02:30N 04°17' W 002°44'1 1.5
2017-Oct-14 02:00N 04°17' W 002°44'1 1.5
2017-Oct-14 01:30N 04°18' W 002°45'1 1.4
2017-Oct-14 01:00N 04°19' W 002°45'1 1.4
2017-Oct-14 00:29N 04°19' W 002°45'1 1.3
2017-Oct-13 23:59N 04°20' W 002°45'1 1.3
2017-Oct-13 23:30N 04°21' W 002°45'1 1.3
2017-Oct-13 23:00N 04°21' W 002°45'1 1.2
2017-Oct-13 22:29N 04°22' W 002°45'1 1.2
2017-Oct-13 21:59N 04°22' W 002°45'1 1.3
2017-Oct-13 21:30N 04°23' W 002°45'1 1.2
2017-Oct-13 21:00N 04°24' W 002°45'1 1.2
2017-Oct-13 20:30N 04°24' W 002°45'1 1.2
2017-Oct-13 20:00N 04°25' W 002°46'1 1.2
2017-Oct-13 19:29N 04°25' W 002°46'1 1.2
2017-Oct-13 18:59N 04°26' W 002°46'1 1.2
2017-Oct-13 18:29N 04°27' W 002°46'1 1.2
2017-Oct-13 18:00N 04°27' W 002°46'1 1.2
2017-Oct-13 17:30N 04°28' W 002°46'1 1.3
2017-Oct-13 16:59N 04°29' W 002°46'1 1.3
2017-Oct-13 16:30N 04°29' W 002°46'1 1.3
2017-Oct-13 15:59N 04°30' W 002°46'1 1.4
2017-Oct-13 15:29N 04°30' W 002°47'1 1.3
2017-Oct-13 15:00N 04°31' W 002°47'1 1.2
2017-Oct-13 14:30N 04°32' W 002°47'1 1.0
2017-Oct-13 14:00N 04°32' W 002°47'1 1.1
2017-Oct-13 13:29N 04°33' W 002°47'1 1.3
2017-Oct-13 12:59N 04°33' W 002°48'1 1.2
2017-Oct-13 12:30N 04°34' W 002°48'0 1.0
2017-Oct-13 12:00N 04°34' W 002°48'1 1.7
2017-Oct-13 11:29N 04°35' W 002°49'3 6.0
2017-Oct-13 11:00N 04°36' W 002°51'2 3.8
2017-Oct-13 10:30N 04°36' W 002°53'0 0.2
2017-Oct-13 10:00N 04°36' W 002°53'0 0.1
2017-Oct-13 07:51N 04°36' W 002°53'0 0.0
2017-Oct-13 07:30N 04°36' W 002°53'0 0.0
2017-Oct-13 07:00N 04°36' W 002°53'0 0.0
2017-Oct-13 06:30N 04°36' W 002°53'0 0.0
2017-Oct-13 06:00N 04°36' W 002°53'0 0.0
2017-Oct-13 05:30N 04°36' W 002°53'0 0.0
2017-Oct-13 04:57N 04°36' W 002°53'0 0.0
2017-Oct-13 04:30N 04°36' W 002°53'0 0.0
2017-Oct-13 04:00N 04°36' W 002°53'0 0.0
2017-Oct-13 03:30N 04°36' W 002°53'0 0.0
2017-Oct-13 03:00N 04°36' W 002°53'0 0.0
2017-Oct-13 02:30N 04°36' W 002°53'0 0.0
2017-Oct-13 02:00N 04°36' W 002°53'0 0.0
2017-Oct-13 01:30N 04°36' W 002°53'0 0.0
2017-Oct-13 01:00N 04°36' W 002°53'0 0.0
2017-Oct-13 00:30N 04°36' W 002°53'0 0.0
2017-Oct-13 00:00N 04°36' W 002°53'0 0.0
2017-Oct-12 23:30N 04°36' W 002°53'0 0.0
2017-Oct-12 22:54N 04°36' W 002°53'0 0.0
2017-Oct-12 22:24N 04°36' W 002°53'0 0.0
2017-Oct-12 21:57N 04°36' W 002°53'0 0.0
2017-Oct-12 21:30N 04°36' W 002°53'0 0.0
2017-Oct-12 21:00N 04°36' W 002°53'0 0.0
2017-Oct-12 20:30N 04°36' W 002°53'0 0.0
2017-Oct-12 20:00N 04°36' W 002°53'0 0.0
2017-Oct-12 19:30N 04°36' W 002°53'0 0.0
2017-Oct-12 18:54N 04°36' W 002°53'0 0.0
2017-Oct-12 18:30N 04°36' W 002°53'0 0.0
2017-Oct-12 18:00N 04°36' W 002°53'0 0.0
2017-Oct-12 17:30N 04°36' W 002°53'0 0.0
2017-Oct-12 17:00N 04°36' W 002°53'0 0.0
2017-Oct-12 16:30N 04°36' W 002°53'0 0.0
2017-Oct-12 16:00N 04°36' W 002°53'0 0.0
2017-Oct-12 15:30N 04°36' W 002°53'0 0.0
2017-Oct-12 15:00N 04°36' W 002°53'0 0.0
2017-Oct-12 14:30N 04°36' W 002°53'0 0.0
2017-Oct-12 14:00N 04°36' W 002°53'0 0.1
2017-Oct-12 13:27N 04°36' W 002°53'0 0.0
2017-Oct-12 12:59N 04°36' W 002°53'0 0.0
2017-Oct-12 12:29N 04°36' W 002°53'0 0.0
2017-Oct-12 11:55N 04°36' W 002°53'0 0.0
2017-Oct-12 11:29N 04°36' W 002°53'0 0.2
2017-Oct-12 11:00N 04°36' W 002°53'0 0.5
2017-Oct-12 10:29N 04°36' W 002°53'0 0.2
2017-Oct-12 09:59N 04°36' W 002°53'0 0.1
2017-Oct-12 09:30N 04°36' W 002°53'1 2.5
2017-Oct-12 09:00N 04°38' W 002°53'3 3.4
2017-Oct-12 08:06N 04°40' W 002°51'1 3.8
2017-Oct-12 07:54N 04°39' W 002°50'2 1.1
2017-Oct-12 05:43N 04°42' W 002°50'0 0.9
2017-Oct-12 05:18N 04°42' W 002°50'0 0.9
2017-Oct-12 04:58N 04°43' W 002°50'2 0.9
2017-Oct-12 02:30N 04°45' W 002°50'0 0.5
2017-Oct-12 01:59N 04°45' W 002°50'2 4.6
2017-Oct-12 01:29N 04°42' W 002°49'2 4.6
2017-Oct-12 00:59N 04°40' W 002°49'2 4.6
2017-Oct-12 00:30N 04°38' W 002°49'2 4.7
2017-Oct-12 00:00N 04°36' W 002°49'2 4.8
2017-Oct-11 23:29N 04°33' W 002°49'2 4.7
2017-Oct-11 22:59N 04°31' W 002°49'2 4.4
2017-Oct-11 22:29N 04°29' W 002°49'1 1.6
2017-Oct-11 22:01N 04°28' W 002°49'1 1.0
2017-Oct-11 21:30N 04°28' W 002°49'1 1.0
2017-Oct-11 21:00N 04°29' W 002°49'1 1.0
2017-Oct-11 20:30N 04°29' W 002°50'1 1.2
2017-Oct-11 19:59N 04°30' W 002°50'1 1.1
2017-Oct-11 19:29N 04°30' W 002°50'1 1.1
2017-Oct-11 19:00N 04°31' W 002°50'1 1.1
2017-Oct-11 18:30N 04°32' W 002°50'1 1.0
2017-Oct-11 17:59N 04°32' W 002°50'1 1.3
2017-Oct-11 17:29N 04°33' W 002°50'1 1.5
2017-Oct-11 16:59N 04°33' W 002°50'35 2.1
2017-Oct-10 23:59N 04°29' W 002°15'3 5.0
2017-Oct-10 23:29N 04°30' W 002°13'2 5.1
2017-Oct-10 23:00N 04°31' W 002°10'3 5.2
2017-Oct-10 22:30N 04°33' W 002°08'3 5.3
2017-Oct-10 21:59N 04°34' W 002°06'2 5.2
2017-Oct-10 21:30N 04°35' W 002°04'4 5.1
2017-Oct-10 20:49N 04°36' W 002°00'4 4.9
2017-Oct-10 20:01N 04°38' W 001°57'2 3.3
2017-Oct-10 19:28N 04°39' W 001°55'2 3.4
2017-Oct-10 18:50N 04°40' W 001°54'1 3.8
2017-Oct-10 18:27N 04°42' W 001°53'2 3.9
2017-Oct-10 18:00N 04°43' W 001°51'2 3.5
2017-Oct-10 17:29N 04°44' W 001°50'3 3.3
2017-Oct-10 16:29N 04°47' W 001°48'8 0.5
2017-Oct-09 22:29N 04°53' W 001°42'0 0.0
2017-Oct-09 21:14N 04°53' W 001°42'0 0.0
2017-Oct-09 20:56N 04°53' W 001°42'0 0.0
2017-Oct-09 20:29N 04°53' W 001°42'0 0.0
2017-Oct-09 19:59N 04°53' W 001°42'0 0.0
2017-Oct-09 19:29N 04°53' W 001°42'0 0.0
2017-Oct-09 18:53N 04°53' W 001°42'0 0.0
2017-Oct-09 18:26N 04°53' W 001°42'0 0.0
2017-Oct-09 17:59N 04°53' W 001°42'0 0.0
2017-Oct-09 17:23N 04°53' W 001°42'0 0.0
2017-Oct-09 16:14N 04°53' W 001°42'0 0.0
2017-Oct-09 15:59N 04°53' W 001°42'  

Dump ship's entire track history